sensor_id;sensor_type;location;lat;lon;timestamp;temperature;humidity
52127;DHT22;38120;53.176;6.614;2022-09-13T00:01:41;17.30;99.90
52127;DHT22;38120;53.176;6.614;2022-09-13T00:04:06;17.30;99.90
52127;DHT22;38120;53.176;6.614;2022-09-13T00:06:32;17.30;99.90
52127;DHT22;38120;53.176;6.614;2022-09-13T00:08:58;17.40;99.90
52127;DHT22;38120;53.176;6.614;2022-09-13T00:11:26;17.30;99.90
52127;DHT22;38120;53.176;6.614;2022-09-13T00:13:52;17.30;99.90
52127;DHT22;38120;53.176;6.614;2022-09-13T00:16:19;17.30;99.90
52127;DHT22;38120;53.176;6.614;2022-09-13T00:18:45;17.30;99.90
52127;DHT22;38120;53.176;6.614;2022-09-13T00:21:12;17.30;99.90
52127;DHT22;38120;53.176;6.614;2022-09-13T00:23:38;17.30;99.90
52127;DHT22;38120;53.176;6.614;2022-09-13T00:26:09;17.30;99.90
52127;DHT22;38120;53.176;6.614;2022-09-13T00:28:35;17.30;99.90
52127;DHT22;38120;53.176;6.614;2022-09-13T00:31:02;17.30;99.90
52127;DHT22;38120;53.176;6.614;2022-09-13T00:33:28;17.30;99.90
52127;DHT22;38120;53.176;6.614;2022-09-13T00:35:53;17.40;99.90
52127;DHT22;38120;53.176;6.614;2022-09-13T00:38:19;17.40;99.90
52127;DHT22;38120;53.176;6.614;2022-09-13T00:40:44;17.30;99.90
52127;DHT22;38120;53.176;6.614;2022-09-13T00:43:17;17.40;99.90
52127;DHT22;38120;53.176;6.614;2022-09-13T00:45:44;17.30;99.90
52127;DHT22;38120;53.176;6.614;2022-09-13T00:48:14;17.40;99.90
52127;DHT22;38120;53.176;6.614;2022-09-13T00:50:43;17.30;99.90
52127;DHT22;38120;53.176;6.614;2022-09-13T00:55:56;17.30;99.90
52127;DHT22;38120;53.176;6.614;2022-09-13T00:58:26;17.30;99.90
52127;DHT22;38120;53.176;6.614;2022-09-13T01:00:54;17.30;99.90
52127;DHT22;38120;53.176;6.614;2022-09-13T01:03:20;17.20;99.90
52127;DHT22;38120;53.176;6.614;2022-09-13T01:05:51;17.30;99.90
52127;DHT22;38120;53.176;6.614;2022-09-13T01:08:18;17.30;99.90
52127;DHT22;38120;53.176;6.614;2022-09-13T01:10:47;17.30;99.90
52127;DHT22;38120;53.176;6.614;2022-09-13T01:13:20;17.30;99.90
52127;DHT22;38120;53.176;6.614;2022-09-13T01:15:47;17.30;99.90
52127;DHT22;38120;53.176;6.614;2022-09-13T01:18:13;17.20;99.90
52127;DHT22;38120;53.176;6.614;2022-09-13T01:26:02;17.20;99.90
52127;DHT22;38120;53.176;6.614;2022-09-13T01:46:55;17.30;99.90
52127;DHT22;38120;53.176;6.614;2022-09-13T01:54:47;17.20;99.90
52127;DHT22;38120;53.176;6.614;2022-09-13T01:57:20;17.20;99.90
52127;DHT22;38120;53.176;6.614;2022-09-13T01:59:49;17.20;99.90
52127;DHT22;38120;53.176;6.614;2022-09-13T02:02:37;17.20;99.90
52127;DHT22;38120;53.176;6.614;2022-09-13T02:05:14;17.20;99.90
52127;DHT22;38120;53.176;6.614;2022-09-13T02:07:42;17.20;99.90
52127;DHT22;38120;53.176;6.614;2022-09-13T02:10:11;17.20;99.90
52127;DHT22;38120;53.176;6.614;2022-09-13T02:12:38;17.20;99.90
52127;DHT22;38120;53.176;6.614;2022-09-13T02:17:37;17.20;99.90
52127;DHT22;38120;53.176;6.614;2022-09-13T02:20:05;17.20;99.90
52127;DHT22;38120;53.176;6.614;2022-09-13T02:22:33;17.20;99.90
52127;DHT22;38120;53.176;6.614;2022-09-13T02:25:11;17.10;99.90
52127;DHT22;38120;53.176;6.614;2022-09-13T02:27:37;17.10;99.90
52127;DHT22;38120;53.176;6.614;2022-09-13T02:30:06;17.10;99.90
52127;DHT22;38120;53.176;6.614;2022-09-13T02:32:36;17.10;99.90
52127;DHT22;38120;53.176;6.614;2022-09-13T02:37:35;17.10;99.90
52127;DHT22;38120;53.176;6.614;2022-09-13T02:40:07;17.10;99.90
52127;DHT22;38120;53.176;6.614;2022-09-13T02:42:37;17.10;99.90
52127;DHT22;38120;53.176;6.614;2022-09-13T02:45:06;17.10;99.90
52127;DHT22;38120;53.176;6.614;2022-09-13T02:47:33;17.10;99.90
52127;DHT22;38120;53.176;6.614;2022-09-13T02:57:28;17.20;99.90
52127;DHT22;38120;53.176;6.614;2022-09-13T02:59:55;17.20;99.90
52127;DHT22;38120;53.176;6.614;2022-09-13T03:02:21;17.20;99.90
52127;DHT22;38120;53.176;6.614;2022-09-13T03:04:49;17.20;99.90
52127;DHT22;38120;53.176;6.614;2022-09-13T03:07:14;17.20;99.90
52127;DHT22;38120;53.176;6.614;2022-09-13T03:09:41;17.30;99.90
52127;DHT22;38120;53.176;6.614;2022-09-13T03:12:28;17.30;99.90
52127;DHT22;38120;53.176;6.614;2022-09-13T03:14:58;17.30;99.90
52127;DHT22;38120;53.176;6.614;2022-09-13T03:25:14;17.30;99.90
52127;DHT22;38120;53.176;6.614;2022-09-13T03:30:20;17.30;99.90
52127;DHT22;38120;53.176;6.614;2022-09-13T03:35:33;17.20;99.90
52127;DHT22;38120;53.176;6.614;2022-09-13T03:38:04;17.20;99.90
52127;DHT22;38120;53.176;6.614;2022-09-13T03:43:10;17.20;99.90
52127;DHT22;38120;53.176;6.614;2022-09-13T03:45:45;17.10;99.90
52127;DHT22;38120;53.176;6.614;2022-09-13T03:48:12;17.20;99.90
52127;DHT22;38120;53.176;6.614;2022-09-13T03:50:38;17.20;99.90
52127;DHT22;38120;53.176;6.614;2022-09-13T03:53:06;17.20;99.90
52127;DHT22;38120;53.176;6.614;2022-09-13T03:55:32;17.20;99.90
52127;DHT22;38120;53.176;6.614;2022-09-13T03:57:59;17.10;99.90
52127;DHT22;38120;53.176;6.614;2022-09-13T04:00:25;17.10;99.90
52127;DHT22;38120;53.176;6.614;2022-09-13T04:02:51;17.10;99.90
52127;DHT22;38120;53.176;6.614;2022-09-13T04:05:16;17.10;99.90
52127;DHT22;38120;53.176;6.614;2022-09-13T04:07:42;17.10;99.90
52127;DHT22;38120;53.176;6.614;2022-09-13T04:10:07;17.10;99.90
52127;DHT22;38120;53.176;6.614;2022-09-13T04:12:34;17.10;99.90
52127;DHT22;38120;53.176;6.614;2022-09-13T04:14:59;17.10;99.90
52127;DHT22;38120;53.176;6.614;2022-09-13T04:17:26;17.10;99.90
52127;DHT22;38120;53.176;6.614;2022-09-13T04:19:51;17.20;99.90
52127;DHT22;38120;53.176;6.614;2022-09-13T04:22:17;17.10;99.90
52127;DHT22;38120;53.176;6.614;2022-09-13T04:24:43;17.10;99.90
52127;DHT22;38120;53.176;6.614;2022-09-13T04:27:09;17.10;99.90
52127;DHT22;38120;53.176;6.614;2022-09-13T04:29:34;17.10;99.90
52127;DHT22;38120;53.176;6.614;2022-09-13T04:32:00;17.10;99.90
52127;DHT22;38120;53.176;6.614;2022-09-13T04:34:26;17.10;99.90
52127;DHT22;38120;53.176;6.614;2022-09-13T04:36:52;17.10;99.90
52127;DHT22;38120;53.176;6.614;2022-09-13T04:39:18;17.10;99.90
52127;DHT22;38120;53.176;6.614;2022-09-13T04:41:44;17.00;99.90
52127;DHT22;38120;53.176;6.614;2022-09-13T04:44:11;17.00;99.90
52127;DHT22;38120;53.176;6.614;2022-09-13T04:46:37;17.00;99.90
52127;DHT22;38120;53.176;6.614;2022-09-13T04:49:03;17.10;99.90
52127;DHT22;38120;53.176;6.614;2022-09-13T04:51:28;17.10;99.90
52127;DHT22;38120;53.176;6.614;2022-09-13T04:53:54;17.00;99.90
52127;DHT22;38120;53.176;6.614;2022-09-13T04:56:20;17.10;99.90
52127;DHT22;38120;53.176;6.614;2022-09-13T04:58:47;17.00;99.90
52127;DHT22;38120;53.176;6.614;2022-09-13T05:01:14;17.10;99.90
52127;DHT22;38120;53.176;6.614;2022-09-13T05:03:40;17.00;99.90
52127;DHT22;38120;53.176;6.614;2022-09-13T05:06:06;17.00;99.90
52127;DHT22;38120;53.176;6.614;2022-09-13T05:08:33;17.10;99.90
52127;DHT22;38120;53.176;6.614;2022-09-13T05:10:58;17.00;99.90
52127;DHT22;38120;53.176;6.614;2022-09-13T05:13:24;17.00;99.90
52127;DHT22;38120;53.176;6.614;2022-09-13T05:15:53;17.00;99.90
52127;DHT22;38120;53.176;6.614;2022-09-13T05:18:19;17.10;99.90
52127;DHT22;38120;53.176;6.614;2022-09-13T05:20:45;17.10;99.90
52127;DHT22;38120;53.176;6.614;2022-09-13T05:23:10;17.10;99.90
52127;DHT22;38120;53.176;6.614;2022-09-13T05:25:36;17.00;99.90
52127;DHT22;38120;53.176;6.614;2022-09-13T05:28:01;17.10;99.90
52127;DHT22;38120;53.176;6.614;2022-09-13T05:30:27;17.00;99.90
52127;DHT22;38120;53.176;6.614;2022-09-13T05:32:53;17.20;99.90
52127;DHT22;38120;53.176;6.614;2022-09-13T05:35:18;17.10;99.90
52127;DHT22;38120;53.176;6.614;2022-09-13T05:37:44;17.10;99.90
52127;DHT22;38120;53.176;6.614;2022-09-13T05:40:10;17.10;99.90
52127;DHT22;38120;53.176;6.614;2022-09-13T05:42:35;17.00;99.90
52127;DHT22;38120;53.176;6.614;2022-09-13T05:45:01;17.10;99.90
52127;DHT22;38120;53.176;6.614;2022-09-13T05:47:26;17.00;99.90
52127;DHT22;38120;53.176;6.614;2022-09-13T05:49:52;17.00;99.90
52127;DHT22;38120;53.176;6.614;2022-09-13T05:52:17;17.00;99.90
52127;DHT22;38120;53.176;6.614;2022-09-13T05:54:43;17.10;99.90
52127;DHT22;38120;53.176;6.614;2022-09-13T05:57:08;17.10;99.90
52127;DHT22;38120;53.176;6.614;2022-09-13T05:59:34;17.00;99.90
52127;DHT22;38120;53.176;6.614;2022-09-13T06:02:00;17.00;99.90
52127;DHT22;38120;53.176;6.614;2022-09-13T06:04:25;18.30;99.90
52127;DHT22;38120;53.176;6.614;2022-09-13T06:06:51;17.00;99.90
52127;DHT22;38120;53.176;6.614;2022-09-13T06:09:16;17.10;99.90
52127;DHT22;38120;53.176;6.614;2022-09-13T06:11:43;17.10;99.90
52127;DHT22;38120;53.176;6.614;2022-09-13T06:14:08;17.20;99.90
52127;DHT22;38120;53.176;6.614;2022-09-13T06:16:34;17.10;99.90
52127;DHT22;38120;53.176;6.614;2022-09-13T06:18:59;17.20;99.90
52127;DHT22;38120;53.176;6.614;2022-09-13T06:21:25;17.20;99.90
52127;DHT22;38120;53.176;6.614;2022-09-13T06:23:51;17.10;99.90
52127;DHT22;38120;53.176;6.614;2022-09-13T06:26:24;17.20;99.90
52127;DHT22;38120;53.176;6.614;2022-09-13T06:28:51;17.30;99.90
52127;DHT22;38120;53.176;6.614;2022-09-13T06:31:18;17.30;99.90
52127;DHT22;38120;53.176;6.614;2022-09-13T06:33:44;17.30;99.90
52127;DHT22;38120;53.176;6.614;2022-09-13T06:38:35;17.30;99.90
52127;DHT22;38120;53.176;6.614;2022-09-13T06:41:02;17.30;99.90
52127;DHT22;38120;53.176;6.614;2022-09-13T06:43:29;17.40;99.90
52127;DHT22;38120;53.176;6.614;2022-09-13T06:45:58;17.40;99.90
52127;DHT22;38120;53.176;6.614;2022-09-13T06:48:23;17.40;99.90
52127;DHT22;38120;53.176;6.614;2022-09-13T06:50:49;17.40;99.90
52127;DHT22;38120;53.176;6.614;2022-09-13T06:53:15;17.50;99.90
52127;DHT22;38120;53.176;6.614;2022-09-13T06:55:40;17.40;99.90
52127;DHT22;38120;53.176;6.614;2022-09-13T06:58:06;17.50;99.90
52127;DHT22;38120;53.176;6.614;2022-09-13T07:00:31;17.60;99.90
52127;DHT22;38120;53.176;6.614;2022-09-13T07:02:57;17.60;99.90
52127;DHT22;38120;53.176;6.614;2022-09-13T07:05:22;17.60;99.90
52127;DHT22;38120;53.176;6.614;2022-09-13T07:07:48;17.60;99.90
52127;DHT22;38120;53.176;6.614;2022-09-13T07:10:13;17.70;99.90
52127;DHT22;38120;53.176;6.614;2022-09-13T07:12:40;17.70;99.90
52127;DHT22;38120;53.176;6.614;2022-09-13T07:15:06;17.80;99.90
52127;DHT22;38120;53.176;6.614;2022-09-13T07:17:31;17.90;99.90
52127;DHT22;38120;53.176;6.614;2022-09-13T07:19:57;18.00;99.90
52127;DHT22;38120;53.176;6.614;2022-09-13T07:22:23;18.00;99.90
52127;DHT22;38120;53.176;6.614;2022-09-13T07:24:51;18.00;99.90
52127;DHT22;38120;53.176;6.614;2022-09-13T07:27:17;18.10;99.90
52127;DHT22;38120;53.176;6.614;2022-09-13T07:29:42;18.00;99.90
52127;DHT22;38120;53.176;6.614;2022-09-13T07:32:08;18.00;99.90
52127;DHT22;38120;53.176;6.614;2022-09-13T07:34:33;18.00;99.90
52127;DHT22;38120;53.176;6.614;2022-09-13T07:37:00;18.00;99.90
52127;DHT22;38120;53.176;6.614;2022-09-13T07:39:25;18.00;99.90
52127;DHT22;38120;53.176;6.614;2022-09-13T07:41:51;18.00;99.90
52127;DHT22;38120;53.176;6.614;2022-09-13T07:44:18;17.80;99.90
52127;DHT22;38120;53.176;6.614;2022-09-13T07:46:43;17.60;99.90
52127;DHT22;38120;53.176;6.614;2022-09-13T07:49:10;17.70;99.90
52127;DHT22;38120;53.176;6.614;2022-09-13T07:51:37;17.80;99.90
52127;DHT22;38120;53.176;6.614;2022-09-13T07:54:04;17.60;99.90
52127;DHT22;38120;53.176;6.614;2022-09-13T07:56:32;17.70;99.90
52127;DHT22;38120;53.176;6.614;2022-09-13T07:58:58;17.80;99.90
52127;DHT22;38120;53.176;6.614;2022-09-13T08:03:57;17.70;99.90
52127;DHT22;38120;53.176;6.614;2022-09-13T08:06:24;17.70;99.90
52127;DHT22;38120;53.176;6.614;2022-09-13T08:08:50;17.80;99.90
52127;DHT22;38120;53.176;6.614;2022-09-13T08:11:20;17.90;99.90
52127;DHT22;38120;53.176;6.614;2022-09-13T08:13:46;17.90;99.90
52127;DHT22;38120;53.176;6.614;2022-09-13T08:16:13;18.00;99.90
52127;DHT22;38120;53.176;6.614;2022-09-13T08:18:45;18.10;99.90
52127;DHT22;38120;53.176;6.614;2022-09-13T08:21:11;18.10;99.90
52127;DHT22;38120;53.176;6.614;2022-09-13T08:23:37;18.10;99.90
52127;DHT22;38120;53.176;6.614;2022-09-13T08:26:03;18.10;99.90
52127;DHT22;38120;53.176;6.614;2022-09-13T08:28:30;18.20;99.90
52127;DHT22;38120;53.176;6.614;2022-09-13T08:31:01;18.40;99.90
52127;DHT22;38120;53.176;6.614;2022-09-13T08:33:27;18.30;99.90
52127;DHT22;38120;53.176;6.614;2022-09-13T08:35:53;18.30;99.90
52127;DHT22;38120;53.176;6.614;2022-09-13T08:38:19;18.40;99.90
52127;DHT22;38120;53.176;6.614;2022-09-13T08:41:02;18.50;99.90
52127;DHT22;38120;53.176;6.614;2022-09-13T08:46:00;18.30;99.90
52127;DHT22;38120;53.176;6.614;2022-09-13T08:48:34;18.30;99.90
52127;DHT22;38120;53.176;6.614;2022-09-13T08:51:02;18.60;99.90
52127;DHT22;38120;53.176;6.614;2022-09-13T08:53:29;18.80;99.90
52127;DHT22;38120;53.176;6.614;2022-09-13T08:56:05;18.90;99.90
52127;DHT22;38120;53.176;6.614;2022-09-13T09:03:55;18.50;99.90
52127;DHT22;38120;53.176;6.614;2022-09-13T09:06:23;18.70;99.90
52127;DHT22;38120;53.176;6.614;2022-09-13T09:08:53;18.80;99.90
52127;DHT22;38120;53.176;6.614;2022-09-13T09:11:30;18.90;99.90
52127;DHT22;38120;53.176;6.614;2022-09-13T09:18:52;19.00;99.90
52127;DHT22;38120;53.176;6.614;2022-09-13T09:21:22;18.90;99.90
52127;DHT22;38120;53.176;6.614;2022-09-13T09:23:52;18.80;99.90
52127;DHT22;38120;53.176;6.614;2022-09-13T09:26:19;19.00;99.90
52127;DHT22;38120;53.176;6.614;2022-09-13T09:28:55;19.10;99.90
52127;DHT22;38120;53.176;6.614;2022-09-13T09:38:52;19.30;99.90
52127;DHT22;38120;53.176;6.614;2022-09-13T09:41:22;19.50;99.90
52127;DHT22;38120;53.176;6.614;2022-09-13T09:44:12;19.70;99.90
52127;DHT22;38120;53.176;6.614;2022-09-13T09:46:39;19.80;99.90
52127;DHT22;38120;53.176;6.614;2022-09-13T09:49:23;20.00;99.90
52127;DHT22;38120;53.176;6.614;2022-09-13T09:52:09;19.70;99.90
52127;DHT22;38120;53.176;6.614;2022-09-13T09:54:35;19.80;99.90
52127;DHT22;38120;53.176;6.614;2022-09-13T09:57:02;20.00;99.90
52127;DHT22;38120;53.176;6.614;2022-09-13T09:59:30;20.10;99.90
52127;DHT22;38120;53.176;6.614;2022-09-13T10:01:58;20.20;99.90
52127;DHT22;38120;53.176;6.614;2022-09-13T10:04:26;20.40;99.90
52127;DHT22;38120;53.176;6.614;2022-09-13T10:09:36;20.20;99.90
52127;DHT22;38120;53.176;6.614;2022-09-13T10:12:03;20.40;99.90
52127;DHT22;38120;53.176;6.614;2022-09-13T10:17:12;20.50;99.90
52127;DHT22;38120;53.176;6.614;2022-09-13T10:19:40;20.80;99.90
52127;DHT22;38120;53.176;6.614;2022-09-13T10:22:10;20.30;99.90
52127;DHT22;38120;53.176;6.614;2022-09-13T10:24:36;20.00;99.90
52127;DHT22;38120;53.176;6.614;2022-09-13T10:27:01;20.10;99.90
52127;DHT22;38120;53.176;6.614;2022-09-13T10:29:28;20.10;99.90
52127;DHT22;38120;53.176;6.614;2022-09-13T10:31:54;20.20;99.90
52127;DHT22;38120;53.176;6.614;2022-09-13T10:34:29;20.30;99.90
52127;DHT22;38120;53.176;6.614;2022-09-13T10:37:16;20.50;99.90
52127;DHT22;38120;53.176;6.614;2022-09-13T10:39:52;20.70;99.90
52127;DHT22;38120;53.176;6.614;2022-09-13T10:42:20;20.80;99.90
52127;DHT22;38120;53.176;6.614;2022-09-13T10:44:52;21.00;99.90
52127;DHT22;38120;53.176;6.614;2022-09-13T10:47:18;21.00;99.90
52127;DHT22;38120;53.176;6.614;2022-09-13T10:49:50;20.50;99.90
52127;DHT22;38120;53.176;6.614;2022-09-13T10:52:32;19.90;99.90
52127;DHT22;38120;53.176;6.614;2022-09-13T10:57:46;20.20;99.90
52127;DHT22;38120;53.176;6.614;2022-09-13T11:00:19;20.40;99.90
52127;DHT22;38120;53.176;6.614;2022-09-13T11:05:25;21.00;99.90
52127;DHT22;38120;53.176;6.614;2022-09-13T11:12:44;19.80;99.90
52127;DHT22;38120;53.176;6.614;2022-09-13T11:23:05;20.20;99.90
52127;DHT22;38120;53.176;6.614;2022-09-13T11:41:30;20.70;99.90
52127;DHT22;38120;53.176;6.614;2022-09-13T11:44:08;20.80;99.90
52127;DHT22;38120;53.176;6.614;2022-09-13T11:46:42;20.80;99.90
52127;DHT22;38120;53.176;6.614;2022-09-13T11:49:15;21.00;99.90
52127;DHT22;38120;53.176;6.614;2022-09-13T11:57:10;21.40;99.90
52127;DHT22;38120;53.176;6.614;2022-09-13T11:59:43;21.30;99.90
52127;DHT22;38120;53.176;6.614;2022-09-13T12:04:44;21.30;99.90
52127;DHT22;38120;53.176;6.614;2022-09-13T12:07:18;21.10;99.90
52127;DHT22;38120;53.176;6.614;2022-09-13T12:09:54;20.60;99.90
52127;DHT22;38120;53.176;6.614;2022-09-13T12:12:22;20.40;99.90
52127;DHT22;38120;53.176;6.614;2022-09-13T12:19:47;21.10;99.90
52127;DHT22;38120;53.176;6.614;2022-09-13T12:22:14;21.10;99.90
52127;DHT22;38120;53.176;6.614;2022-09-13T12:24:50;21.20;99.90
52127;DHT22;38120;53.176;6.614;2022-09-13T12:27:24;20.70;99.90
52127;DHT22;38120;53.176;6.614;2022-09-13T12:29:55;20.60;99.90
52127;DHT22;38120;53.176;6.614;2022-09-13T12:32:21;20.70;99.90
52127;DHT22;38120;53.176;6.614;2022-09-13T12:42:34;21.10;99.90
52127;DHT22;38120;53.176;6.614;2022-09-13T12:45:07;21.00;99.90
52127;DHT22;38120;53.176;6.614;2022-09-13T12:53:00;21.00;99.90
52127;DHT22;38120;53.176;6.614;2022-09-13T13:00:24;20.90;99.90
52127;DHT22;38120;53.176;6.614;2022-09-13T13:02:59;20.60;99.90
52127;DHT22;38120;53.176;6.614;2022-09-13T13:07:52;20.30;99.90
52127;DHT22;38120;53.176;6.614;2022-09-13T13:10:31;20.20;99.90
52127;DHT22;38120;53.176;6.614;2022-09-13T13:13:14;20.40;99.90
52127;DHT22;38120;53.176;6.614;2022-09-13T13:18:23;20.60;99.90
52127;DHT22;38120;53.176;6.614;2022-09-13T13:23:22;20.80;99.90
52127;DHT22;38120;53.176;6.614;2022-09-13T13:25:56;20.80;99.90
52127;DHT22;38120;53.176;6.614;2022-09-13T13:31:06;21.00;99.90
52127;DHT22;38120;53.176;6.614;2022-09-13T13:33:41;21.00;99.90
52127;DHT22;38120;53.176;6.614;2022-09-13T13:36:29;20.70;99.90
52127;DHT22;38120;53.176;6.614;2022-09-13T13:38:57;20.50;99.90
52127;DHT22;38120;53.176;6.614;2022-09-13T13:44:00;20.50;99.90
52127;DHT22;38120;53.176;6.614;2022-09-13T13:46:28;20.40;99.90
52127;DHT22;38120;53.176;6.614;2022-09-13T13:48:54;20.20;99.90
52127;DHT22;38120;53.176;6.614;2022-09-13T13:51:21;20.30;99.90
52127;DHT22;38120;53.176;6.614;2022-09-13T13:53:56;20.40;99.90
52127;DHT22;38120;53.176;6.614;2022-09-13T13:56:28;20.60;99.90
52127;DHT22;38120;53.176;6.614;2022-09-13T13:58:55;20.60;99.90
52127;DHT22;38120;53.176;6.614;2022-09-13T14:01:25;20.50;99.90
52127;DHT22;38120;53.176;6.614;2022-09-13T14:04:04;20.80;99.90
52127;DHT22;38120;53.176;6.614;2022-09-13T14:06:35;20.90;99.90
52127;DHT22;38120;53.176;6.614;2022-09-13T14:19:33;20.50;99.90
52127;DHT22;38120;53.176;6.614;2022-09-13T14:22:06;20.30;99.90
52127;DHT22;38120;53.176;6.614;2022-09-13T14:24:36;20.20;99.90
52127;DHT22;38120;53.176;6.614;2022-09-13T14:27:02;20.30;99.90
52127;DHT22;38120;53.176;6.614;2022-09-13T14:29:27;20.30;99.90
52127;DHT22;38120;53.176;6.614;2022-09-13T14:31:55;20.20;99.90
52127;DHT22;38120;53.176;6.614;2022-09-13T14:34:29;20.50;99.90
52127;DHT22;38120;53.176;6.614;2022-09-13T14:36:56;20.50;99.90
52127;DHT22;38120;53.176;6.614;2022-09-13T14:39:23;20.60;99.90
52127;DHT22;38120;53.176;6.614;2022-09-13T14:41:56;20.80;99.90
52127;DHT22;38120;53.176;6.614;2022-09-13T14:44:23;20.80;99.90
52127;DHT22;38120;53.176;6.614;2022-09-13T14:47:23;20.00;99.90
52127;DHT22;38120;53.176;6.614;2022-09-13T14:49:45;20.30;99.90
52127;DHT22;38120;53.176;6.614;2022-09-13T14:52:18;20.50;99.90
52127;DHT22;38120;53.176;6.614;2022-09-13T14:54:46;20.10;99.90
52127;DHT22;38120;53.176;6.614;2022-09-13T14:57:37;20.10;99.90
52127;DHT22;38120;53.176;6.614;2022-09-13T15:00:20;20.40;99.90
52127;DHT22;38120;53.176;6.614;2022-09-13T15:02:53;20.30;99.90
52127;DHT22;38120;53.176;6.614;2022-09-13T15:05:21;20.30;99.90
52127;DHT22;38120;53.176;6.614;2022-09-13T15:07:47;20.20;99.90
52127;DHT22;38120;53.176;6.614;2022-09-13T15:12:52;20.30;99.90
52127;DHT22;38120;53.176;6.614;2022-09-13T15:17:57;19.90;99.90
52127;DHT22;38120;53.176;6.614;2022-09-13T15:20:23;20.00;99.90
52127;DHT22;38120;53.176;6.614;2022-09-13T15:22:49;20.00;99.90
52127;DHT22;38120;53.176;6.614;2022-09-13T15:25:27;20.00;99.90
52127;DHT22;38120;53.176;6.614;2022-09-13T15:27:56;19.90;99.90
52127;DHT22;38120;53.176;6.614;2022-09-13T15:30:24;20.00;99.90
52127;DHT22;38120;53.176;6.614;2022-09-13T15:33:02;19.80;99.90
52127;DHT22;38120;53.176;6.614;2022-09-13T15:35:29;19.70;99.90
52127;DHT22;38120;53.176;6.614;2022-09-13T15:40:43;19.70;99.90
52127;DHT22;38120;53.176;6.614;2022-09-13T15:43:09;20.00;99.90
52127;DHT22;38120;53.176;6.614;2022-09-13T15:45:34;19.80;99.90
52127;DHT22;38120;53.176;6.614;2022-09-13T15:48:00;19.70;99.90
52127;DHT22;38120;53.176;6.614;2022-09-13T15:50:27;19.50;99.90
52127;DHT22;38120;53.176;6.614;2022-09-13T15:52:55;19.60;99.90
52127;DHT22;38120;53.176;6.614;2022-09-13T15:55:21;19.50;99.90
52127;DHT22;38120;53.176;6.614;2022-09-13T15:57:47;19.50;99.90
52127;DHT22;38120;53.176;6.614;2022-09-13T16:00:17;19.40;99.90
52127;DHT22;38120;53.176;6.614;2022-09-13T16:02:43;20.00;99.90
52127;DHT22;38120;53.176;6.614;2022-09-13T16:05:08;19.90;99.90
52127;DHT22;38120;53.176;6.614;2022-09-13T16:07:36;19.90;99.90
52127;DHT22;38120;53.176;6.614;2022-09-13T16:10:02;19.60;99.90
52127;DHT22;38120;53.176;6.614;2022-09-13T16:12:28;19.10;99.90
52127;DHT22;38120;53.176;6.614;2022-09-13T16:14:53;19.10;99.90
52127;DHT22;38120;53.176;6.614;2022-09-13T16:17:23;19.20;99.90
52127;DHT22;38120;53.176;6.614;2022-09-13T16:19:49;19.00;99.90
52127;DHT22;38120;53.176;6.614;2022-09-13T16:22:15;19.20;99.90
52127;DHT22;38120;53.176;6.614;2022-09-13T16:24:40;19.20;99.90
52127;DHT22;38120;53.176;6.614;2022-09-13T16:27:06;19.20;99.90
52127;DHT22;38120;53.176;6.614;2022-09-13T16:29:34;19.10;99.90
52127;DHT22;38120;53.176;6.614;2022-09-13T16:32:00;19.00;99.90
52127;DHT22;38120;53.176;6.614;2022-09-13T16:34:26;19.00;99.90
52127;DHT22;38120;53.176;6.614;2022-09-13T16:36:51;18.90;99.90
52127;DHT22;38120;53.176;6.614;2022-09-13T16:39:17;18.90;99.90
52127;DHT22;38120;53.176;6.614;2022-09-13T16:41:43;18.80;99.90
52127;DHT22;38120;53.176;6.614;2022-09-13T16:44:08;18.70;99.90
52127;DHT22;38120;53.176;6.614;2022-09-13T16:46:35;18.80;99.90
52127;DHT22;38120;53.176;6.614;2022-09-13T16:49:00;19.00;99.90
52127;DHT22;38120;53.176;6.614;2022-09-13T16:51:26;18.90;99.90
52127;DHT22;38120;53.176;6.614;2022-09-13T16:53:52;18.80;99.90
52127;DHT22;38120;53.176;6.614;2022-09-13T16:56:19;18.80;99.90
52127;DHT22;38120;53.176;6.614;2022-09-13T16:58:47;18.70;99.90
52127;DHT22;38120;53.176;6.614;2022-09-13T17:01:14;18.60;99.90
52127;DHT22;38120;53.176;6.614;2022-09-13T17:03:39;18.50;99.90
52127;DHT22;38120;53.176;6.614;2022-09-13T17:06:06;18.40;99.90
52127;DHT22;38120;53.176;6.614;2022-09-13T17:09:37;18.20;99.90
52127;DHT22;38120;53.176;6.614;2022-09-13T17:12:09;18.20;99.90
52127;DHT22;38120;53.176;6.614;2022-09-13T17:14:35;18.20;99.90
52127;DHT22;38120;53.176;6.614;2022-09-13T17:17:01;18.20;99.90
52127;DHT22;38120;53.176;6.614;2022-09-13T17:19:31;18.10;99.90
52127;DHT22;38120;53.176;6.614;2022-09-13T17:22:02;18.10;99.90
52127;DHT22;38120;53.176;6.614;2022-09-13T17:24:28;18.00;99.90
52127;DHT22;38120;53.176;6.614;2022-09-13T17:26:55;18.00;99.90
52127;DHT22;38120;53.176;6.614;2022-09-13T17:29:22;18.00;99.90
52127;DHT22;38120;53.176;6.614;2022-09-13T17:31:50;17.90;99.90
52127;DHT22;38120;53.176;6.614;2022-09-13T17:34:16;17.90;99.90
52127;DHT22;38120;53.176;6.614;2022-09-13T17:36:42;17.90;99.90
52127;DHT22;38120;53.176;6.614;2022-09-13T17:39:08;17.80;99.90
52127;DHT22;38120;53.176;6.614;2022-09-13T17:41:34;17.80;99.90
52127;DHT22;38120;53.176;6.614;2022-09-13T17:44:00;17.70;99.90
52127;DHT22;38120;53.176;6.614;2022-09-13T17:46:26;17.60;99.90
52127;DHT22;38120;53.176;6.614;2022-09-13T17:48:56;17.60;99.90
52127;DHT22;38120;53.176;6.614;2022-09-13T17:51:24;17.60;99.90
52127;DHT22;38120;53.176;6.614;2022-09-13T17:53:56;17.50;99.90
52127;DHT22;38120;53.176;6.614;2022-09-13T17:56:30;17.50;99.90
52127;DHT22;38120;53.176;6.614;2022-09-13T17:59:06;17.50;99.90
52127;DHT22;38120;53.176;6.614;2022-09-13T18:01:38;17.40;99.90
52127;DHT22;38120;53.176;6.614;2022-09-13T18:04:04;17.30;99.90
52127;DHT22;38120;53.176;6.614;2022-09-13T18:06:30;17.30;99.90
52127;DHT22;38120;53.176;6.614;2022-09-13T18:08:56;17.30;99.90
52127;DHT22;38120;53.176;6.614;2022-09-13T18:11:22;17.30;99.90
52127;DHT22;38120;53.176;6.614;2022-09-13T18:13:48;17.20;99.90
52127;DHT22;38120;53.176;6.614;2022-09-13T18:16:24;17.10;99.90
52127;DHT22;38120;53.176;6.614;2022-09-13T18:18:50;17.10;99.90
52127;DHT22;38120;53.176;6.614;2022-09-13T18:21:18;17.00;99.90
52127;DHT22;38120;53.176;6.614;2022-09-13T18:23:46;17.00;99.90
52127;DHT22;38120;53.176;6.614;2022-09-13T18:26:14;16.90;99.90
52127;DHT22;38120;53.176;6.614;2022-09-13T18:28:41;16.90;99.90
52127;DHT22;38120;53.176;6.614;2022-09-13T18:31:15;16.90;99.90
52127;DHT22;38120;53.176;6.614;2022-09-13T18:33:42;16.80;99.90
52127;DHT22;38120;53.176;6.614;2022-09-13T18:36:14;16.90;99.90
52127;DHT22;38120;53.176;6.614;2022-09-13T18:38:42;16.90;99.90
52127;DHT22;38120;53.176;6.614;2022-09-13T18:41:13;16.80;99.90
52127;DHT22;38120;53.176;6.614;2022-09-13T18:43:41;16.80;99.90
52127;DHT22;38120;53.176;6.614;2022-09-13T18:46:10;16.70;99.90